Città:
 IT 
 EN 
 FR 
 DE 
 ES 

Dati meteo attuali Milano

Datameteo.com - Informazione e servizi avanzati per la meteorologia,la nautica e la protezione civile
Milano / Linate, Italy
Alba: 5:31 AM UTC1
Tramonto: 7:12 PM UTC1
 Lat: 45.42N, Lon: 9.27E
ICAO Used: LIML
Condizioni Meteo Attuali Aggiornate: 18.04.2021 alle 05:20 UTC
Coperto
Coperto
Coperto
Temp: 9°C
Umidita': 71%
Direz/Vel. Vento: variabile 1 / KT raffiche
Pressione: 1016 hPa
Punto di rugiada: 4°C
Temperatura percepita: 8°C
Visibilitą: >10 KM (ottima)
Temperatura percepita in
presenza di vento (Wind Chill)
:
N/D
T. max (ultime 24 ore): 9°C
T. min (ultime 24 ore): 9°C


METAR ORIGINALE
LIML 180520Z VRB01KT 9999 SCT020 BKN060 09/04 Q1016 NOSIG



[ Indietro ]


Elaborazione dati by Datameteo.com - Lrc srl Copyright ©, All rights reserved.
Visualizza la versione web
©2010 Datameteo.com
weather mobile,mobile weather,meteo mobile,mobile meteo,meteo sul telefonino datameteo.com